Haslemere, United Kingdom
Current Conditions -  °F | °C
As of 7:50 PM on Saturday 20 Dec 2014 (Local Time) from EGLF Reporting Station
Clear Clear  
Wind Chill: 36°   Ceiling: Unl
Heat Index: 41°   Visibility: 6mi
Dew Point: 37°   Wind: 7mph
Humidity: 87%   Direction: 260°W
Pressure: 30.45"   Gusts: NA
Location:  51.09°N, 0.71°W
Report Text: EGLF 201950Z 26006KT CAVOK 05/03 Q1031
Loading
Personal Weather Stations






























Interactive Weather Map New forecast layout! Learn more

10-Day Weather Forecast

Advertisements
Track Severe Weather on mobile